Time;durP1;ratioP1;P1;durP2;ratioP2;P2;SDS_P1;SDS_P2;PMS_P1;PMS_P2;Temp;Humidity;BMP_temperature;BMP_pressure;BME280_temperature;BME280_humidity;BME280_pressure;Samples;Min_cycle;Max_cycle;Signal;HPM_P1;HPM_P2
2021/04/29 00:00:14;;;;;;;8.73;4.50;;;11.70;99.90;;;;;;5065447;28;20048;-79
2021/04/29 00:02:40;;;;;;;8.32;4.20;;;11.60;99.90;;;;;;5066167;28;20040;-78
2021/04/29 00:05:08;;;;;;;14.18;4.47;;;11.60;99.90;;;;;;5064990;28;20405;-78
2021/04/29 00:07:35;;;;;;;7.90;4.43;;;11.50;99.90;;;;;;5065273;28;20032;-78
2021/04/29 00:10:02;;;;;;;7.38;3.90;;;11.50;99.90;;;;;;5064608;28;20044;-77
2021/04/29 00:12:28;;;;;;;13.95;4.60;;;11.50;99.90;;;;;;5064610;28;20045;-78
2021/04/29 00:14:53;;;;;;;7.38;3.63;;;11.40;99.90;;;;;;5064785;28;20036;-79
2021/04/29 00:17:19;;;;;;;7.60;4.28;;;11.40;99.90;;;;;;5065826;28;20025;-77
2021/04/29 00:19:44;;;;;;;7.93;4.55;;;11.40;99.90;;;;;;5064877;28;20492;-79
2021/04/29 00:22:10;;;;;;;8.88;4.43;;;11.30;99.90;;;;;;5065019;28;20033;-78
2021/04/29 00:24:36;;;;;;;7.70;4.03;;;11.30;99.90;;;;;;5065431;28;20091;-78
2021/04/29 00:27:01;;;;;;;13.68;4.40;;;11.30;99.90;;;;;;5065868;28;20089;-77
2021/04/29 00:29:27;;;;;;;7.68;4.28;;;11.20;99.90;;;;;;5066219;28;20043;-77
2021/04/29 00:31:52;;;;;;;13.18;5.50;;;11.20;99.90;;;;;;5066631;28;20130;-77
2021/04/29 00:34:18;;;;;;;13.23;6.13;;;11.20;99.90;;;;;;5065991;28;20052;-77
2021/04/29 00:36:44;;;;;;;11.65;5.38;;;11.20;99.90;;;;;;5064549;28;20025;-77
2021/04/29 00:39:09;;;;;;;13.15;5.07;;;11.20;99.90;;;;;;5065542;28;20033;-77
2021/04/29 00:41:35;;;;;;;13.30;5.82;;;11.20;99.90;;;;;;5065611;28;20033;-78
2021/04/29 00:44:01;;;;;;;11.07;5.00;;;11.10;99.90;;;;;;5064119;28;20811;-77
2021/04/29 00:46:28;;;;;;;11.40;4.32;;;11.10;99.90;;;;;;5065476;28;20067;-78
2021/04/29 00:48:54;;;;;;;10.70;5.03;;;11.10;99.90;;;;;;5065431;28;20028;-77
2021/04/29 00:51:21;;;;;;;8.82;4.53;;;11.10;99.90;;;;;;5065022;28;20405;-78
2021/04/29 00:53:47;;;;;;;9.80;4.85;;;11.00;99.90;;;;;;5065680;28;20121;-77
2021/04/29 00:56:13;;;;;;;9.77;4.50;;;11.00;99.90;;;;;;5063711;28;20029;-77
2021/04/29 00:58:39;;;;;;;8.10;5.10;;;11.00;99.90;;;;;;5064047;28;20038;-78
2021/04/29 01:01:06;;;;;;;12.57;4.75;;;11.00;99.90;;;;;;5064070;28;20120;-77
2021/04/29 01:03:38;;;;;;;9.43;4.57;;;11.00;99.90;;;;;;5065089;28;20087;-78
2021/04/29 01:06:16;;;;;;;8.05;4.47;;;10.90;99.90;;;;;;5065067;28;20037;-78
2021/04/29 01:08:56;;;;;;;8.70;4.80;;;10.90;99.90;;;;;;5064105;28;20032;-78
2021/04/29 01:11:26;;;;;;;9.18;4.78;;;10.90;99.90;;;;;;5064572;28;20041;-77
2021/04/29 01:13:56;;;;;;;11.48;5.35;;;10.90;99.90;;;;;;5063709;28;20025;-77
2021/04/29 01:16:24;;;;;;;9.70;5.22;;;11.00;99.90;;;;;;5063760;28;20055;-79
2021/04/29 01:18:52;;;;;;;9.98;5.13;;;10.90;99.90;;;;;;5064852;28;20037;-78
2021/04/29 01:21:20;;;;;;;9.65;4.65;;;10.90;99.90;;;;;;5063928;28;20071;-78
2021/04/29 01:24:07;;;;;;;7.22;4.20;;;10.80;99.90;;;;;;5064729;28;20049;-79
2021/04/29 01:26:33;;;;;;;11.75;5.15;;;10.90;99.90;;;;;;5064490;28;20037;-77
2021/04/29 01:29:03;;;;;;;12.45;5.18;;;10.90;99.90;;;;;;5064743;28;20039;-77
2021/04/29 01:31:32;;;;;;;17.17;5.15;;;10.80;99.90;;;;;;5064899;28;20041;-77
2021/04/29 01:33:59;;;;;;;8.75;4.32;;;10.80;99.90;;;;;;5063140;28;20096;-76
2021/04/29 01:36:28;;;;;;;17.10;5.28;;;10.80;99.90;;;;;;5063642;28;20025;-77
2021/04/29 01:38:55;;;;;;;10.90;5.50;;;10.80;99.90;;;;;;5063147;28;20025;-77
2021/04/29 01:41:21;;;;;;;9.77;4.10;;;10.80;99.90;;;;;;5063660;28;20021;-78
2021/04/29 01:43:46;;;;;;;9.98;5.32;;;10.80;99.90;;;;;;5063522;28;20078;-77
2021/04/29 01:46:12;;;;;;;13.02;6.65;;;10.80;99.90;;;;;;5065037;28;20085;-78
2021/04/29 01:48:38;;;;;;;20.65;6.35;;;10.80;99.90;;;;;;5063369;28;20394;-78
2021/04/29 01:51:05;;;;;;;10.95;5.93;;;10.70;99.90;;;;;;5064554;28;20052;-78
2021/04/29 01:53:31;;;;;;;9.77;5.32;;;10.70;99.90;;;;;;5064219;28;20047;-77
2021/04/29 01:55:57;;;;;;;16.60;6.40;;;10.80;99.90;;;;;;5064367;28;20029;-79
2021/04/29 01:58:23;;;;;;;10.45;4.95;;;10.70;99.90;;;;;;5066847;28;20021;-78
2021/04/29 02:00:49;;;;;;;15.07;6.07;;;10.80;99.90;;;;;;5062854;28;20037;-78
2021/04/29 02:03:15;;;;;;;13.73;5.70;;;10.70;99.90;;;;;;5063327;28;20082;-78
2021/04/29 02:05:41;;;;;;;11.75;5.88;;;10.70;99.90;;;;;;5063421;28;20056;-80
2021/04/29 02:08:07;;;;;;;9.73;5.20;;;10.80;99.90;;;;;;5064286;28;20041;-79
2021/04/29 02:10:33;;;;;;;9.82;4.95;;;10.80;99.90;;;;;;5063105;28;20490;-79
2021/04/29 02:13:00;;;;;;;9.48;5.35;;;10.70;99.90;;;;;;5064287;28;20094;-78
2021/04/29 02:15:34;;;;;;;11.57;5.28;;;10.80;99.90;;;;;;5064072;28;20025;-77
2021/04/29 02:18:10;;;;;;;14.65;6.80;;;10.70;99.90;;;;;;5063167;28;20025;-80
2021/04/29 02:20:41;;;;;;;9.15;5.88;;;10.80;99.90;;;;;;5062717;28;20029;-77
2021/04/29 02:23:10;;;;;;;13.70;6.40;;;10.80;99.90;;;;;;5062686;28;20075;-80
2021/04/29 02:25:38;;;;;;;12.25;6.18;;;10.70;99.90;;;;;;5063065;28;20039;-78
2021/04/29 02:28:04;;;;;;;13.35;5.82;;;10.70;99.90;;;;;;5062505;28;20029;-78
2021/04/29 02:30:30;;;;;;;11.15;5.43;;;10.70;99.90;;;;;;5064334;28;20057;-78
2021/04/29 02:32:56;;;;;;;16.88;5.60;;;10.70;99.90;;;;;;5062817;28;20075;-78
2021/04/29 02:35:22;;;;;;;20.08;7.03;;;10.70;99.90;;;;;;5064037;28;20086;-77
2021/04/29 02:37:50;;;;;;;10.57;5.35;;;10.70;99.90;;;;;;5064032;28;20025;-77
2021/04/29 02:40:17;;;;;;;11.85;6.18;;;10.70;99.90;;;;;;5063993;28;20036;-78
2021/04/29 02:42:44;;;;;;;11.65;5.70;;;10.60;99.90;;;;;;5062432;28;20036;-79
2021/04/29 02:45:12;;;;;;;13.50;6.13;;;10.70;99.90;;;;;;5063172;28;20021;-79
2021/04/29 02:47:45;;;;;;;13.43;6.28;;;10.60;99.90;;;;;;5062778;28;20033;-77
2021/04/29 02:50:13;;;;;;;17.98;6.78;;;10.70;99.90;;;;;;5062511;28;20051;-79
2021/04/29 02:52:39;;;;;;;10.60;5.47;;;10.60;99.90;;;;;;5067180;28;20068;-79
2021/04/29 02:55:07;;;;;;;17.55;6.35;;;10.70;99.90;;;;;;5065860;28;20033;-80
2021/04/29 02:57:33;;;;;;;10.68;5.78;;;10.70;99.90;;;;;;5067367;28;20490;-79
2021/04/29 02:59:58;;;;;;;16.65;5.95;;;10.70;99.90;;;;;;5067602;28;20025;-79
2021/04/29 03:02:24;;;;;;;10.52;5.60;;;10.60;99.90;;;;;;5066167;28;20033;-80
2021/04/29 03:04:50;;;;;;;13.52;6.47;;;10.70;99.90;;;;;;5067634;28;20047;-79
2021/04/29 03:07:16;;;;;;;11.20;5.85;;;10.70;99.90;;;;;;5067764;28;20583;-78
2021/04/29 03:09:41;;;;;;;13.25;6.10;;;10.70;99.90;;;;;;5065823;28;20021;-78
2021/04/29 03:12:07;;;;;;;13.43;6.53;;;10.70;99.90;;;;;;5066191;28;20503;-79
2021/04/29 03:14:33;;;;;;;13.07;6.10;;;10.70;99.90;;;;;;5067149;28;20024;-79
2021/04/29 03:16:58;;;;;;;14.18;6.50;;;10.60;99.90;;;;;;5065527;28;20036;-78
2021/04/29 03:19:24;;;;;;;12.20;6.65;;;10.60;99.90;;;;;;5066013;28;20040;-78
2021/04/29 03:21:50;;;;;;;10.40;5.78;;;10.70;99.90;;;;;;5066161;28;20500;-79
2021/04/29 03:24:15;;;;;;;12.77;7.30;;;10.60;99.90;;;;;;5065559;28;20045;-78
2021/04/29 03:26:41;;;;;;;11.10;5.47;;;10.70;99.90;;;;;;5067360;28;20025;-79
2021/04/29 03:29:07;;;;;;;11.75;6.05;;;10.60;99.90;;;;;;5065300;28;20088;-78
2021/04/29 03:31:33;;;;;;;14.43;5.47;;;10.60;99.90;;;;;;5066780;28;20045;-77
2021/04/29 03:33:59;;;;;;;13.43;6.63;;;10.60;99.90;;;;;;5065711;28;20036;-78
2021/04/29 03:36:25;;;;;;;12.00;5.38;;;10.70;99.90;;;;;;5066759;28;20381;-77
2021/04/29 03:38:51;;;;;;;10.98;6.07;;;10.60;99.90;;;;;;5066789;28;20026;-78
2021/04/29 03:41:17;;;;;;;11.40;6.63;;;10.60;99.90;;;;;;5067131;28;20037;-78
2021/04/29 03:43:42;;;;;;;10.82;5.68;;;10.60;99.90;;;;;;5066736;28;20079;-79
2021/04/29 03:46:08;;;;;;;12.55;6.32;;;10.60;99.90;;;;;;5065705;28;20047;-77
2021/04/29 03:48:34;;;;;;;13.45;6.47;;;10.60;99.90;;;;;;5065510;28;20092;-77
2021/04/29 03:50:59;;;;;;;14.93;5.72;;;10.60;99.90;;;;;;5066538;28;20040;-77
2021/04/29 03:53:25;;;;;;;12.10;5.45;;;10.60;99.90;;;;;;5066686;28;20021;-77
2021/04/29 03:55:51;;;;;;;12.75;5.93;;;10.60;99.90;;;;;;5067268;28;20029;-78
2021/04/29 03:58:16;;;;;;;12.77;6.68;;;10.60;99.90;;;;;;5066633;28;20488;-79
2021/04/29 04:00:42;;;;;;;11.30;6.30;;;10.60;99.90;;;;;;5065167;28;20033;-78
2021/04/29 04:03:08;;;;;;;14.98;6.72;;;10.60;99.90;;;;;;5065751;28;20113;-78
2021/04/29 04:05:33;;;;;;;14.52;6.10;;;10.60;99.90;;;;;;5066339;28;20029;-78
2021/04/29 04:07:59;;;;;;;10.82;6.13;;;10.60;99.90;;;;;;5064962;28;20044;-78
2021/04/29 04:10:25;;;;;;;11.00;6.13;;;10.60;99.90;;;;;;5066224;28;20076;-79
2021/04/29 04:12:50;;;;;;;11.43;5.80;;;10.60;99.90;;;;;;5064671;28;20553;-79
2021/04/29 04:15:16;;;;;;;12.05;6.50;;;10.60;99.90;;;;;;5065538;28;20033;-80
2021/04/29 04:17:42;;;;;;;10.98;6.25;;;10.60;99.90;;;;;;5050504;28;20048;-76
2021/04/29 04:20:08;;;;;;;16.80;7.22;;;10.60;99.90;;;;;;5053742;28;20030;-77
2021/04/29 04:22:34;;;;;;;12.05;6.60;;;10.50;99.90;;;;;;5058010;28;20029;-77
2021/04/29 04:24:59;;;;;;;16.08;6.00;;;10.50;99.90;;;;;;5064539;28;20385;-78
2021/04/29 04:27:25;;;;;;;11.35;5.97;;;10.40;99.90;;;;;;5064136;28;20060;-77
2021/04/29 04:29:51;;;;;;;12.38;6.75;;;10.40;99.90;;;;;;5066127;28;20021;-79
2021/04/29 04:32:17;;;;;;;13.27;6.15;;;10.40;99.90;;;;;;5054389;28;20037;-78
2021/04/29 04:34:42;;;;;;;11.02;5.72;;;10.40;99.90;;;;;;5056239;28;20088;-77
2021/04/29 04:37:08;;;;;;;15.55;6.78;;;10.30;99.90;;;;;;5044106;28;20025;-78
2021/04/29 04:39:35;;;;;;;12.98;6.50;;;10.40;99.90;;;;;;5044059;28;20037;-78
2021/04/29 04:42:02;;;;;;;14.20;7.20;;;10.40;99.90;;;;;;5043860;28;20065;-77
2021/04/29 04:44:28;;;;;;;15.30;6.85;;;10.30;99.90;;;;;;5045010;28;20131;-78
2021/04/29 04:46:53;;;;;;;14.55;6.90;;;10.30;99.90;;;;;;5045913;28;20021;-78
2021/04/29 04:49:19;;;;;;;12.15;6.30;;;10.40;99.90;;;;;;5044864;28;20071;-79
2021/04/29 04:51:46;;;;;;;14.57;8.13;;;10.40;99.90;;;;;;5044812;28;20060;-78
2021/04/29 04:54:12;;;;;;;13.80;6.88;;;10.40;99.90;;;;;;5044416;28;20030;-78
2021/04/29 04:56:38;;;;;;;12.48;6.50;;;10.40;99.90;;;;;;5044260;28;20049;-80
2021/04/29 04:59:04;;;;;;;14.30;7.28;;;10.40;99.90;;;;;;5045766;28;20032;-77
2021/04/29 05:01:30;;;;;;;15.55;7.00;;;10.40;99.90;;;;;;5044412;28;20877;-78
2021/04/29 05:03:56;;;;;;;18.15;7.32;;;10.30;99.90;;;;;;5053411;28;20412;-78
2021/04/29 05:06:21;;;;;;;14.15;7.15;;;10.30;99.90;;;;;;5061133;28;20026;-78
2021/04/29 05:08:48;;;;;;;18.27;8.23;;;10.30;99.90;;;;;;5045618;28;20021;-78
2021/04/29 05:11:15;;;;;;;11.88;6.88;;;10.40;99.90;;;;;;5045805;28;20041;-78
2021/04/29 05:13:40;;;;;;;14.50;6.47;;;10.30;99.90;;;;;;5045648;28;20029;-81
2021/04/29 05:16:06;;;;;;;14.82;6.63;;;10.30;99.90;;;;;;5045016;28;20039;-78
2021/04/29 05:18:32;;;;;;;14.13;7.50;;;10.30;99.90;;;;;;5044100;28;20029;-78
2021/04/29 05:20:57;;;;;;;11.68;7.13;;;10.30;99.90;;;;;;5044010;28;20033;-79
2021/04/29 05:23:23;;;;;;;19.08;8.27;;;10.40;99.90;;;;;;5045255;28;20073;-79
2021/04/29 05:25:48;;;;;;;15.05;7.05;;;10.30;99.90;;;;;;5044023;28;20055;-80
2021/04/29 05:28:14;;;;;;;12.95;6.63;;;10.40;99.90;;;;;;5044637;28;20022;-78
2021/04/29 05:30:40;;;;;;;13.52;6.85;;;10.40;99.90;;;;;;5043906;28;20053;-79
2021/04/29 05:33:05;;;;;;;15.15;6.63;;;10.50;99.90;;;;;;5045005;28;20041;-78
2021/04/29 05:35:31;;;;;;;14.88;7.72;;;10.50;99.90;;;;;;5045109;28;20474;-78
2021/04/29 05:37:57;;;;;;;10.82;5.82;;;10.60;99.90;;;;;;5042872;28;20025;-78
2021/04/29 05:40:23;;;;;;;14.25;6.35;;;10.60;99.90;;;;;;5043348;28;20095;-77
2021/04/29 05:42:48;;;;;;;12.15;6.97;;;10.70;99.90;;;;;;5043822;28;20053;-79
2021/04/29 05:45:14;;;;;;;14.60;7.97;;;10.80;99.90;;;;;;5057193;28;20029;-78
2021/04/29 05:47:40;;;;;;;15.68;7.63;;;10.90;99.90;;;;;;5064037;28;20116;-77
2021/04/29 05:50:07;;;;;;;16.83;7.50;;;10.90;99.90;;;;;;5063319;28;20033;-77
2021/04/29 05:52:33;;;;;;;11.75;6.28;;;10.90;99.90;;;;;;5064430;28;20040;-78
2021/04/29 05:54:58;;;;;;;17.48;6.70;;;11.00;99.90;;;;;;5063340;28;20028;-78
2021/04/29 05:57:24;;;;;;;12.73;6.82;;;11.00;99.90;;;;;;5063504;28;20021;-77
2021/04/29 05:59:50;;;;;;;21.10;7.25;;;11.00;99.90;;;;;;5064493;28;20044;-78
2021/04/29 06:02:16;;;;;;;13.15;6.97;;;11.10;99.90;;;;;;5065636;28;20052;-78
2021/04/29 06:04:42;;;;;;;12.63;6.75;;;11.20;99.90;;;;;;5065183;28;20089;-79
2021/04/29 06:07:09;;;;;;;12.75;6.90;;;11.20;99.90;;;;;;5064583;28;20063;-78
2021/04/29 06:09:35;;;;;;;16.35;7.85;;;11.20;99.90;;;;;;5063511;28;20032;-79
2021/04/29 06:12:00;;;;;;;11.20;6.50;;;11.30;99.90;;;;;;5063271;28;20040;-77
2021/04/29 06:14:27;;;;;;;11.60;6.10;;;11.30;99.90;;;;;;5063026;28;20084;-77
2021/04/29 06:16:52;;;;;;;12.50;6.28;;;11.30;99.90;;;;;;5062611;28;20432;-78
2021/04/29 06:19:18;;;;;;;13.18;6.75;;;11.30;99.90;;;;;;5062846;28;20025;-78
2021/04/29 06:21:45;;;;;;;14.13;6.30;;;11.40;99.90;;;;;;5060388;28;20021;-77
2021/04/29 06:24:11;;;;;;;16.13;6.85;;;11.40;99.90;;;;;;5057016;28;20053;-77
2021/04/29 06:26:36;;;;;;;11.63;6.75;;;11.50;99.90;;;;;;5050422;28;20032;-77
2021/04/29 06:29:03;;;;;;;11.63;6.53;;;11.60;99.90;;;;;;5047426;28;20034;-77
2021/04/29 06:31:28;;;;;;;13.52;6.32;;;11.70;99.90;;;;;;5047159;28;20033;-77
2021/04/29 06:33:54;;;;;;;15.45;7.68;;;11.70;99.90;;;;;;5048257;28;20457;-76
2021/04/29 06:36:19;;;;;;;14.40;7.15;;;11.80;99.90;;;;;;5060729;28;20037;-77
2021/04/29 06:38:45;;;;;;;18.10;7.15;;;11.90;99.90;;;;;;5068516;28;20064;-78
2021/04/29 06:41:11;;;;;;;18.02;8.15;;;11.90;99.90;;;;;;5067791;28;20033;-76
2021/04/29 06:43:37;;;;;;;14.95;7.57;;;12.00;99.90;;;;;;5065661;28;20669;-75
2021/04/29 06:46:02;;;;;;;12.15;6.30;;;12.10;99.90;;;;;;5065436;28;20470;-77
2021/04/29 06:48:28;;;;;;;16.50;7.70;;;12.10;99.90;;;;;;5067329;28;20025;-76
2021/04/29 06:50:54;;;;;;;19.33;6.72;;;12.20;99.90;;;;;;5067279;28;20045;-75
2021/04/29 06:53:20;;;;;;;16.83;7.47;;;12.30;99.90;;;;;;5065920;28;20043;-77
2021/04/29 06:55:46;;;;;;;15.95;6.75;;;12.40;99.90;;;;;;5065687;28;20040;-77
2021/04/29 06:58:11;;;;;;;12.07;6.70;;;12.40;99.90;;;;;;5066700;28;20047;-74
2021/04/29 07:00:37;;;;;;;18.52;6.50;;;12.50;99.90;;;;;;5067818;28;20025;-77
2021/04/29 07:03:03;;;;;;;10.55;6.55;;;12.50;99.90;;;;;;5066200;28;20077;-76
2021/04/29 07:05:29;;;;;;;12.15;6.43;;;12.50;99.90;;;;;;5066408;28;20036;-76
2021/04/29 07:07:55;;;;;;;14.05;7.25;;;12.50;99.90;;;;;;5065917;28;20051;-77
2021/04/29 07:10:22;;;;;;;12.20;7.20;;;12.50;99.90;;;;;;5066002;28;20027;-77
2021/04/29 07:12:48;;;;;;;10.43;5.63;;;12.50;99.90;;;;;;5067599;28;20037;-76
2021/04/29 07:15:14;;;;;;;10.68;6.07;;;12.50;99.90;;;;;;5067119;28;20025;-76
2021/04/29 07:17:41;;;;;;;9.20;6.43;;;12.40;99.90;;;;;;5067205;28;20382;-75
2021/04/29 07:20:08;;;;;;;14.60;6.50;;;12.30;99.90;;;;;;5058716;28;20417;-75
2021/04/29 07:22:33;;;;;;;11.45;6.60;;;12.20;99.90;;;;;;5062142;28;20093;-75
2021/04/29 07:24:59;;;;;;;14.40;6.10;;;12.20;99.90;;;;;;5053824;28;20064;-76
2021/04/29 07:27:24;;;;;;;12.45;6.18;;;12.10;99.90;;;;;;5055319;28;20036;-77
2021/04/29 07:29:50;;;;;;;10.68;5.95;;;12.10;99.90;;;;;;5053141;28;20429;-77
2021/04/29 07:32:15;;;;;;;11.20;6.25;;;12.10;99.90;;;;;;5044113;28;20041;-77
2021/04/29 07:34:58;;;;;;;12.82;6.47;;;12.10;99.90;;;;;;5047013;28;20033;-78
2021/04/29 07:37:25;;;;;;;12.23;6.33;;;12.10;99.90;;;;;;5051588;28;20072;-75
2021/04/29 07:39:51;;;;;;;11.77;6.35;;;12.10;99.90;;;;;;5056441;28;20759;-77
2021/04/29 07:42:17;;;;;;;14.48;8.20;;;11.90;99.90;;;;;;5053762;28;20029;-77
2021/04/29 07:44:43;;;;;;;18.70;7.47;;;11.90;99.90;;;;;;5047199;28;20080;-77
2021/04/29 07:47:09;;;;;;;15.35;6.88;;;11.80;99.90;;;;;;5060652;28;20092;-77
2021/04/29 07:49:34;;;;;;;15.38;7.43;;;11.70;99.90;;;;;;5058642;28;20033;-76
2021/04/29 07:52:00;;;;;;;12.88;6.63;;;11.70;99.90;;;;;;5045436;28;20053;-76
2021/04/29 07:54:26;;;;;;;14.35;6.75;;;11.60;99.90;;;;;;5051402;28;20036;-77
2021/04/29 07:56:52;;;;;;;14.23;7.57;;;11.50;99.90;;;;;;5053765;28;20033;-77
2021/04/29 07:59:17;;;;;;;14.27;7.63;;;11.40;99.90;;;;;;5046668;28;20049;-77
2021/04/29 08:01:43;;;;;;;16.80;8.30;;;11.30;99.90;;;;;;5044976;28;20036;-77
2021/04/29 08:04:09;;;;;;;13.35;7.65;;;11.20;99.90;;;;;;5045016;28;20124;-77
2021/04/29 08:06:35;;;;;;;14.30;7.72;;;11.20;99.90;;;;;;5046324;28;20026;-76
2021/04/29 08:09:01;;;;;;;17.17;8.23;;;11.20;99.90;;;;;;5045097;28;20049;-76
2021/04/29 08:11:26;;;;;;;17.67;8.85;;;11.10;99.90;;;;;;5046293;28;20037;-78
2021/04/29 08:13:54;;;;;;;16.50;7.80;;;11.00;99.90;;;;;;5045454;28;20034;-79
2021/04/29 08:16:19;;;;;;;14.25;8.88;;;11.00;99.90;;;;;;5046345;28;20025;-78
2021/04/29 08:18:48;;;;;;;19.60;8.50;;;10.80;99.90;;;;;;5049292;28;20074;-79
2021/04/29 08:21:15;;;;;;;15.15;8.18;;;10.80;99.90;;;;;;5056112;28;20041;-77
2021/04/29 08:23:41;;;;;;;16.45;7.90;;;10.70;99.90;;;;;;5045904;28;20132;-79
2021/04/29 08:26:06;;;;;;;20.10;9.00;;;10.70;99.90;;;;;;5046190;28;20022;-78
2021/04/29 08:28:32;;;;;;;19.20;8.43;;;10.60;99.90;;;;;;5046567;28;20032;-78
2021/04/29 08:30:57;;;;;;;18.13;9.40;;;10.60;99.90;;;;;;5045251;28;20029;-81
2021/04/29 08:33:23;;;;;;;20.73;9.40;;;10.50;99.90;;;;;;5044336;28;20037;-82
2021/04/29 08:35:49;;;;;;;19.35;8.73;;;10.50;99.90;;;;;;5055537;28;20497;-82
2021/04/29 08:38:15;;;;;;;18.15;7.85;;;10.50;99.90;;;;;;5044054;28;20481;-81
2021/04/29 08:40:41;;;;;;;15.45;8.93;;;10.60;99.90;;;;;;5043405;28;20037;-80
2021/04/29 08:43:07;;;;;;;16.90;8.82;;;10.50;99.90;;;;;;5043938;28;20033;-79
2021/04/29 08:45:36;;;;;;;19.52;9.02;;;10.60;99.90;;;;;;5044723;28;20130;-79
2021/04/29 08:48:01;;;;;;;13.45;8.00;;;10.60;99.90;;;;;;5045062;28;20041;-80
2021/04/29 08:50:28;;;;;;;15.70;8.55;;;10.60;99.90;;;;;;5043111;28;20021;-78
2021/04/29 08:52:54;;;;;;;17.23;7.85;;;10.70;99.90;;;;;;5044152;28;20049;-77
2021/04/29 08:55:22;;;;;;;16.15;8.95;;;10.70;99.90;;;;;;5044288;28;20545;-77
2021/04/29 08:57:49;;;;;;;14.25;8.75;;;10.70;99.90;;;;;;5043712;28;20025;-73
2021/04/29 09:00:18;;;;;;;18.60;8.52;;;10.70;99.90;;;;;;5041535;28;20049;-73
2021/04/29 09:02:45;;;;;;;19.25;8.35;;;10.80;99.90;;;;;;5042689;28;20091;-75
2021/04/29 09:05:22;;;;;;;20.70;9.10;;;10.80;99.90;;;;;;5042435;28;20025;-73
2021/04/29 09:07:59;;;;;;;17.02;8.95;;;10.80;99.90;;;;;;5041852;28;20029;-73
2021/04/29 09:10:34;;;;;;;15.40;9.45;;;10.90;99.90;;;;;;5042182;28;20056;-74
2021/04/29 09:13:11;;;;;;;18.08;9.93;;;10.90;99.90;;;;;;5041782;28;20047;-73
2021/04/29 09:15:39;;;;;;;22.60;9.73;;;10.90;99.90;;;;;;5043316;28;20045;-72
2021/04/29 09:18:16;;;;;;;18.05;10.40;;;10.90;99.90;;;;;;5043284;28;20052;-72
2021/04/29 09:20:56;;;;;;;20.10;9.63;;;10.90;99.90;;;;;;5043263;28;20037;-73
2021/04/29 09:23:27;;;;;;;15.23;8.13;;;10.90;99.90;;;;;;5043081;28;20077;-72
2021/04/29 09:26:02;;;;;;;17.20;9.00;;;10.80;99.90;;;;;;5041721;28;20036;-70
2021/04/29 09:28:39;;;;;;;19.92;9.30;;;10.90;99.90;;;;;;5043029;28;20037;-72
2021/04/29 09:31:08;;;;;;;17.98;9.40;;;10.80;99.90;;;;;;5043083;28;20026;-71
2021/04/29 09:33:40;;;;;;;17.38;8.90;;;10.80;99.90;;;;;;5042751;28;20029;-74
2021/04/29 09:36:08;;;;;;;18.70;9.60;;;10.90;99.90;;;;;;5043173;28;20036;-73
2021/04/29 09:38:37;;;;;;;19.85;10.00;;;10.90;99.90;;;;;;5043299;28;20541;-73
2021/04/29 09:41:04;;;;;;;16.42;8.48;;;10.90;99.90;;;;;;5042282;28;20013;-72
2021/04/29 09:43:30;;;;;;;20.40;9.60;;;11.00;99.90;;;;;;5043360;28;20033;-75
2021/04/29 09:45:58;;;;;;;16.13;9.10;;;11.00;99.90;;;;;;5042989;28;20109;-74
2021/04/29 09:48:37;;;;;;;20.17;9.32;;;11.10;99.90;;;;;;5043104;28;20029;-72
2021/04/29 09:51:03;;;;;;;23.15;9.75;;;11.10;99.90;;;;;;5041781;28;20535;-74
2021/04/29 09:53:41;;;;;;;16.77;8.40;;;11.20;99.90;;;;;;5041187;28;20242;-73
2021/04/29 09:56:09;;;;;;;20.02;10.13;;;11.20;99.90;;;;;;5042765;28;20029;-75
2021/04/29 09:58:35;;;;;;;21.95;8.70;;;11.20;99.90;;;;;;5041441;28;20030;-73
2021/04/29 10:01:00;;;;;;;22.58;9.32;;;11.10;99.90;;;;;;5041922;28;20057;-71
2021/04/29 10:03:26;;;;;;;16.17;9.48;;;11.10;99.90;;;;;;5043265;28;20026;-73
2021/04/29 10:05:54;;;;;;;15.80;8.75;;;11.10;99.90;;;;;;5043119;28;20530;-72
2021/04/29 10:08:25;;;;;;;19.38;9.43;;;11.10;99.90;;;;;;5042487;28;20033;-71
2021/04/29 10:10:56;;;;;;;21.45;8.73;;;11.00;99.90;;;;;;5042858;28;20498;-72
2021/04/29 10:13:30;;;;;;;19.85;9.43;;;10.90;99.90;;;;;;5042438;28;20089;-73
2021/04/29 10:15:57;;;;;;;16.98;9.32;;;10.80;99.90;;;;;;5039113;28;20041;-70
2021/04/29 10:18:24;;;;;;;21.58;8.85;;;10.80;99.90;;;;;;5052823;28;20044;-74
2021/04/29 10:21:00;;;;;;;25.85;10.23;;;10.80;99.90;;;;;;5063519;28;20111;-70
2021/04/29 10:23:29;;;;;;;20.42;9.35;;;10.70;99.90;;;;;;5061924;28;20048;-72
2021/04/29 10:25:58;;;;;;;22.20;10.82;;;10.70;99.90;;;;;;5060238;28;20441;-72
2021/04/29 10:28:38;;;;;;;24.35;11.25;;;10.70;99.90;;;;;;5061033;28;20032;-72
2021/04/29 10:31:19;;;;;;;19.83;9.45;;;10.70;99.90;;;;;;5061994;28;20040;-71
2021/04/29 10:33:58;;;;;;;21.33;10.82;;;10.60;99.90;;;;;;5062159;28;20025;-70
2021/04/29 10:36:34;;;;;;;19.52;10.32;;;10.60;99.90;;;;;;5062506;28;20025;-71
2021/04/29 10:39:09;;;;;;;21.00;9.93;;;10.70;99.90;;;;;;5063192;28;20097;-72
2021/04/29 10:41:35;;;;;;;22.92;10.25;;;10.60;99.90;;;;;;5061629;28;20418;-70
2021/04/29 10:44:12;;;;;;;17.42;9.50;;;10.60;99.90;;;;;;5062311;28;20443;-72
2021/04/29 10:46:39;;;;;;;19.02;9.70;;;10.60;99.90;;;;;;5062783;28;20029;-70
2021/04/29 10:49:06;;;;;;;19.75;9.95;;;10.60;99.90;;;;;;5062258;28;20098;-71
2021/04/29 10:51:41;;;;;;;22.98;10.80;;;10.70;99.90;;;;;;5061652;28;20036;-69
2021/04/29 10:54:20;;;;;;;23.52;11.70;;;10.70;99.90;;;;;;5060184;28;20033;-71
2021/04/29 10:57:07;;;;;;;24.88;9.32;;;10.60;99.90;;;;;;5062402;28;20096;-73
2021/04/29 10:59:41;;;;;;;21.83;11.18;;;10.60;99.90;;;;;;5062174;28;20036;-72
2021/04/29 11:02:24;;;;;;;24.98;10.88;;;10.60;99.90;;;;;;5062326;28;20044;-71
2021/04/29 11:04:52;;;;;;;21.65;10.43;;;10.60;99.90;;;;;;5061183;28;20033;-74
2021/04/29 11:07:19;;;;;;;23.45;11.75;;;10.60;99.90;;;;;;5061840;28;20474;-74
2021/04/29 11:09:55;;;;;;;21.15;11.63;;;10.50;99.90;;;;;;5060101;28;20032;-74
2021/04/29 11:12:21;;;;;;;19.00;10.40;;;10.50;99.90;;;;;;5061047;28;20041;-73
2021/04/29 11:14:47;;;;;;;21.50;11.50;;;10.50;99.90;;;;;;5063574;28;20087;-72
2021/04/29 11:17:25;;;;;;;21.73;10.38;;;10.50;99.90;;;;;;5065057;28;20033;-72
2021/04/29 11:19:53;;;;;;;24.33;11.80;;;10.50;99.90;;;;;;5045131;28;20041;-71
2021/04/29 11:22:24;;;;;;;24.02;12.27;;;10.50;99.90;;;;;;5045475;28;20044;-71
2021/04/29 11:24:51;;;;;;;23.50;11.27;;;10.50;99.90;;;;;;5044598;28;20049;-74
2021/04/29 11:27:28;;;;;;;22.90;10.68;;;10.60;99.90;;;;;;5043896;28;20091;-72
2021/04/29 11:30:03;;;;;;;21.02;11.10;;;10.60;99.90;;;;;;5045061;28;20391;-74
2021/04/29 11:32:32;;;;;;;20.05;10.18;;;10.70;99.90;;;;;;5044530;28;20105;-73
2021/04/29 11:34:59;;;;;;;28.65;11.73;;;10.70;99.90;;;;;;5044693;28;20033;-72
2021/04/29 11:37:25;;;;;;;21.23;10.98;;;10.80;99.90;;;;;;5045294;28;20061;-71
2021/04/29 11:40:03;;;;;;;19.98;9.52;;;10.80;99.90;;;;;;5044903;28;20072;-72
2021/04/29 11:42:33;;;;;;;22.98;9.82;;;10.80;99.90;;;;;;5044196;28;20021;-74
2021/04/29 11:45:17;;;;;;;17.92;10.57;;;10.90;99.90;;;;;;5043726;28;20031;-72
2021/04/29 11:47:55;;;;;;;17.65;9.52;;;10.80;99.90;;;;;;5043296;28;20041;-73
2021/04/29 11:50:29;;;;;;;17.33;10.18;;;10.80;99.90;;;;;;5043765;28;20037;-72
2021/04/29 11:53:11;;;;;;;24.85;10.90;;;10.90;99.90;;;;;;5043230;28;20112;-72
2021/04/29 11:55:43;;;;;;;20.00;10.40;;;10.90;99.90;;;;;;5044756;28;20087;-73
2021/04/29 11:58:13;;;;;;;27.92;10.25;;;10.80;99.90;;;;;;5043644;28;20124;-70
2021/04/29 12:00:44;;;;;;;22.33;10.68;;;10.80;99.90;;;;;;5044936;28;20033;-73
2021/04/29 12:03:11;;;;;;;17.45;9.10;;;10.80;99.90;;;;;;5054620;28;20040;-72
2021/04/29 12:05:39;;;;;;;24.10;12.13;;;10.80;99.90;;;;;;5048612;28;20470;-72
2021/04/29 12:08:09;;;;;;;21.40;11.50;;;10.80;99.90;;;;;;5052798;28;20512;-72
2021/04/29 12:10:56;;;;;;;18.42;9.75;;;10.80;99.90;;;;;;5047302;28;20028;-71
2021/04/29 12:13:31;;;;;;;20.13;10.55;;;10.80;99.90;;;;;;5051083;28;20045;-72
2021/04/29 12:15:59;;;;;;;22.50;10.88;;;10.80;99.90;;;;;;5062490;28;20032;-71
2021/04/29 12:18:25;;;;;;;20.10;10.75;;;10.70;99.90;;;;;;5044273;28;20072;-71
2021/04/29 12:20:51;;;;;;;23.58;10.95;;;10.70;99.90;;;;;;5044031;28;20033;-73
2021/04/29 12:23:17;;;;;;;26.83;10.95;;;10.70;99.90;;;;;;5044546;28;20050;-72
2021/04/29 12:26:13;;;;;;;27.10;12.20;;;10.70;99.90;;;;;;5044603;28;20060;-71
2021/04/29 12:28:42;;;;;;;17.52;10.52;;;10.70;99.90;;;;;;5044277;28;20558;-72
2021/04/29 12:31:18;;;;;;;27.77;11.90;;;10.70;99.90;;;;;;5045104;28;20064;-74
2021/04/29 12:34:05;;;;;;;24.92;12.25;;;10.70;99.90;;;;;;5043170;28;20037;-73
2021/04/29 12:36:36;;;;;;;23.88;10.30;;;10.80;99.90;;;;;;5060324;28;20405;-73
2021/04/29 12:39:15;;;;;;;21.00;10.93;;;10.80;99.90;;;;;;5064037;28;20029;-74